»·PEaware :: QXE2193 KSEA-KBLI

QXE2193 :: KSEA-KBLI

FLIGHT INFORMATION

Flight Status: Arrived
Operator:
Horizon Air
More flights by this operator :: More flights under this callsign
Pilot: Nick C. (18816)
Aircraft: BOEING 737-700
(B737)
More flights by this aircraft type
Origin: KSEA Seattle-Tacoma Intl
United States
Destination: KBLI Bellingham Intl
United States
More flights between these airports :: More routes between these airports
Route: SEA8 SEA PAE MADEE MADEE4
File this flight plan on PilotEdge
Remarks:
Altitude:
(Current/Filed)
16,000ft
Speed:
(Current/Filed)
300kts
Departed: 14-Mar-23 06:24 PM
Arrived: 14-Mar-23 06:56 PM
Distance/Time
Traveled:
81nm/0:32
Distance/Time
To Go:
Arrived

Flight Plot

Page will automatically refresh every two minutes.

Flight plan parsing failed; only flown route is shown


Map Options




Map Legend


Flown Route
Filed Route
Departure Airport
Arrival Airport
Navaid (VOR, NDB)
Fix

Horizontal Profiles

Position Reports

Time Latitude Longitude Heading Altitude Ground
Speed
14-Mar-23 17:58 47.442061 -122.302986 297 363ft 0kts
14-Mar-23 17:59 47.442061 -122.302986 297 363ft 0kts
14-Mar-23 18:00 47.442061 -122.302986 297 363ft 0kts
14-Mar-23 18:01 47.442061 -122.302986 297 363ft 0kts
14-Mar-23 18:02 47.442061 -122.302986 297 363ft 0kts
14-Mar-23 18:03 47.442061 -122.302986 297 363ft 0kts
14-Mar-23 18:04 47.442061 -122.302986 297 363ft 0kts
14-Mar-23 18:05 47.442061 -122.302986 297 363ft 0kts
14-Mar-23 18:06 47.442061 -122.302986 297 363ft 0kts
14-Mar-23 18:07 47.442061 -122.302986 297 363ft 0kts
14-Mar-23 18:08 47.442061 -122.302986 297 363ft 0kts
14-Mar-23 18:09 47.442061 -122.302986 297 363ft 0kts
14-Mar-23 18:10 47.442061 -122.302986 297 363ft 0kts
14-Mar-23 18:11 47.442061 -122.302986 297 363ft 0kts
14-Mar-23 18:12 47.442014 -122.302852 297 364ft 2kts
14-Mar-23 18:13 47.441947 -122.302165 211 385ft 2kts
14-Mar-23 18:14 47.441929 -122.302181 211 385ft 0kts
14-Mar-23 18:15 47.441864 -122.302239 211 385ft 2kts
14-Mar-23 18:16 47.440005 -122.303075 241 383ft 8kts
14-Mar-23 18:17 47.439913 -122.305325 271 382ft 15kts
14-Mar-23 18:18 47.443890 -122.306347 0 387ft 16kts
14-Mar-23 18:19 47.449074 -122.306280 0 393ft 20kts
14-Mar-23 18:20 47.454883 -122.306234 359 407ft 19kts
14-Mar-23 18:21 47.460060 -122.306181 0 416ft 17kts
14-Mar-23 18:22 47.463681 -122.307570 236 425ft 12kts
14-Mar-23 18:23 47.441045 -122.308535 182 1299ft 182kts
14-Mar-23 18:24 47.386183 -122.304582 177 5546ft 231kts
14-Mar-23 18:25 47.319644 -122.324493 233 9151ft 269kts
14-Mar-23 18:26 47.332187 -122.427068 318 13227ft 291kts
14-Mar-23 18:27 47.421046 -122.425817 9 14984ft 349kts
14-Mar-23 18:28 47.517191 -122.395317 8 15995ft 353kts
14-Mar-23 18:29 47.612295 -122.367549 7 16016ft 350kts
14-Mar-23 18:30 47.708270 -122.339668 7 16017ft 351kts
14-Mar-23 18:31 47.803603 -122.311851 7 16001ft 348kts
14-Mar-23 18:32 47.898697 -122.284016 7 15997ft 348kts
14-Mar-23 18:33 47.992350 -122.298560 344 16010ft 340kts
14-Mar-23 18:34 48.085725 -122.325839 345 16011ft 342kts
14-Mar-23 18:35 48.179029 -122.352886 345 16010ft 342kts
14-Mar-23 18:36 48.266997 -122.378466 344 15715ft 298kts
14-Mar-23 18:37 48.351841 -122.403470 346 13516ft 333kts
14-Mar-23 18:38 48.442430 -122.429997 347 10331ft 331kts
14-Mar-23 18:39 48.533339 -122.447775 352 7051ft 329kts
14-Mar-23 18:40 48.622035 -122.464936 352 4033ft 303kts
14-Mar-23 18:41 48.698433 -122.476993 357 3008ft 259kts
14-Mar-23 18:42 48.769695 -122.487301 352 3000ft 257kts
14-Mar-23 18:43 48.840604 -122.499886 352 2997ft 257kts
14-Mar-23 18:44 48.911680 -122.512744 352 2996ft 257kts
14-Mar-23 18:45 48.977661 -122.528366 346 2967ft 204kts
14-Mar-23 18:46 49.028636 -122.563845 316 2999ft 219kts
14-Mar-23 18:47 49.076120 -122.614952 5 2996ft 212kts
14-Mar-23 18:48 49.092115 -122.546525 143 2999ft 214kts
14-Mar-23 18:49 49.031374 -122.538501 179 3001ft 209kts
14-Mar-23 18:50 48.974204 -122.538235 180 2972ft 194kts
14-Mar-23 18:51 48.922428 -122.538031 180 2523ft 184kts
14-Mar-23 18:52 48.872731 -122.537836 179 1562ft 160kts
14-Mar-23 18:53 48.834423 -122.537682 179 892ft 129kts
14-Mar-23 18:54 48.799124 -122.537505 179 188ft 114kts
14-Mar-23 18:55 48.790232 -122.536847 87 188ft 5kts
14-Mar-23 18:56 48.791330 -122.534735 185 185ft 7kts

Navigation Log

Ident Type
Flight plan parsing failed, navigation log unavailable